Time;durP1;ratioP1;P1;durP2;ratioP2;P2;SDS_P1;SDS_P2;PMS_P1;PMS_P2;Temp;Humidity;BMP_temperature;BMP_pressure;BME280_temperature;BME280_humidity;BME280_pressure;Samples;Min_cycle;Max_cycle;Signal;HPM_P1;HPM_P2
2022/05/24 00:01:31;;;;;;;0.00;0.00;;;;;;;;;;5025576;28;20128;-87
2022/05/24 00:03:59;;;;;;;0.00;0.00;;;;;;;;;;5023580;28;20410;-87
2022/05/24 00:06:26;;;;;;;0.38;0.38;;;;;;;;;;5023972;28;20519;-87
2022/05/24 00:08:53;;;;;;;0.10;0.10;;;;;;;;;;5028203;28;20042;-84
2022/05/24 00:11:19;;;;;;;0.17;0.17;;;;;;;;;;5022939;28;20025;-83
2022/05/24 00:13:45;;;;;;;0.08;0.08;;;;;;;;;;5021085;28;20481;-84
2022/05/24 00:16:11;;;;;;;0.10;0.10;;;;;;;;;;5022550;28;21873;-85
2022/05/24 00:18:37;;;;;;;0.00;0.00;;;;;;;;;;5022783;28;20033;-85
2022/05/24 00:21:04;;;;;;;0.53;0.53;;;;;;;;;;5022448;28;21870;-85
2022/05/24 00:23:31;;;;;;;0.38;0.38;;;;;;;;;;5020107;28;20086;-85
2022/05/24 00:25:59;;;;;;;0.35;0.35;;;;;;;;;;5024997;28;20029;-86
2022/05/24 00:28:27;;;;;;;0.05;0.05;;;;;;;;;;5024028;28;20045;-86
2022/05/24 00:30:55;;;;;;;0.10;0.10;;;;;;;;;;5027043;28;20077;-88
2022/05/24 00:33:21;;;;;;;0.80;0.50;;;;;;;;;;5025602;28;20028;-86
2022/05/24 00:35:47;;;;;;;0.20;0.20;;;;;;;;;;5008155;28;20052;-84
2022/05/24 00:38:15;;;;;;;0.03;0.03;;;;;;;;;;5021800;28;20042;-85
2022/05/24 00:40:47;;;;;;;0.25;0.25;;;;;;;;;;5036780;28;20059;-84
2022/05/24 00:43:16;;;;;;;0.22;0.17;;;;;;;;;;5022084;28;21400;-85
2022/05/24 00:45:48;;;;;;;0.10;0.10;;;;;;;;;;5019839;28;20040;-82
2022/05/24 00:48:38;;;;;;;0.20;0.20;;;;;;;;;;5036140;28;20536;-84
2022/05/24 00:51:04;;;;;;;0.03;0.03;;;;;;;;;;5020414;28;20986;-85
2022/05/24 00:53:39;;;;;;;0.13;0.13;;;;;;;;;;5022799;28;22000;-84
2022/05/24 00:56:11;;;;;;;0.22;0.22;;;;;;;;;;5023964;28;20040;-85
2022/05/24 00:58:59;;;;;;;0.35;0.35;;;;;;;;;;5019832;28;21925;-83
2022/05/24 01:01:36;;;;;;;0.00;0.00;;;;;;;;;;5026660;28;20092;-84
2022/05/24 01:04:02;;;;;;;0.45;0.45;;;;;;;;;;5024014;28;20025;-84
2022/05/24 01:06:28;;;;;;;0.10;0.10;;;;;;;;;;5022057;28;20044;-84
2022/05/24 01:08:57;;;;;;;2.10;0.70;;;;;;;;;;5022818;28;20122;-84
2022/05/24 01:11:23;;;;;;;0.10;0.10;;;;;;;;;;5021470;28;20031;-84
2022/05/24 01:13:50;;;;;;;0.00;0.00;;;;;;;;;;5021276;28;20026;-84
2022/05/24 01:16:16;;;;;;;;;;;;;;;;;;5022113;28;20041;-85
2022/05/24 01:18:42;;;;;;;0.10;0.10;;;;;;;;;;5021260;28;19948;-85
2022/05/24 01:21:09;;;;;;;0.10;0.10;;;;;;;;;;5021434;28;20745;-85
2022/05/24 01:23:54;;;;;;;0.17;0.17;;;;;;;;;;5028249;28;20037;-85
2022/05/24 01:26:20;;;;;;;0.10;0.10;;;;;;;;;;5024321;28;20033;-85
2022/05/24 01:28:54;;;;;;;0.10;0.10;;;;;;;;;;5027572;28;20060;-84
2022/05/24 01:31:21;;;;;;;0.08;0.08;;;;;;;;;;5028420;28;20737;-84
2022/05/24 01:36:35;;;;;;;0.35;0.15;;;;;;;;;;5032229;28;19927;-91
2022/05/24 01:39:04;;;;;;;0.90;0.70;;;;;;;;;;5032681;28;20074;-90
2022/05/24 01:41:31;;;;;;;0.10;0.10;;;;;;;;;;5038917;28;20033;-87
2022/05/24 01:43:58;;;;;;;0.82;0.82;;;;;;;;;;5042339;28;20048;-85
2022/05/24 01:46:35;;;;;;;0.10;0.10;;;;;;;;;;5025119;28;20112;-86
2022/05/24 01:49:04;;;;;;;0.28;0.28;;;;;;;;;;5026336;28;20034;-86
2022/05/24 01:51:32;;;;;;;1.52;0.45;;;;;;;;;;5026026;28;20028;-85
2022/05/24 01:54:01;;;;;;;0.10;0.10;;;;;;;;;;5026110;28;20038;-87
2022/05/24 01:56:50;;;;;;;0.10;0.10;;;;;;;;;;5023639;28;20494;-84
2022/05/24 01:59:18;;;;;;;0.00;0.00;;;;;;;;;;5026080;28;20053;-84
2022/05/24 02:01:49;;;;;;;0.17;0.17;;;;;;;;;;5024838;28;20091;-84
2022/05/24 02:04:15;;;;;;;0.17;0.17;;;;;;;;;;5025845;28;20036;-84
2022/05/24 02:06:42;;;;;;;0.10;0.10;;;;;;;;;;5026312;28;20040;-83
2022/05/24 02:09:08;;;;;;;0.10;0.10;;;;;;;;;;5025419;28;20126;-86
2022/05/24 02:11:35;;;;;;;0.70;0.70;;;;;;;;;;5023258;28;20036;-86
2022/05/24 02:14:05;;;;;;;0.40;0.40;;;;;;;;;;5024862;28;20032;-85
2022/05/24 02:16:33;;;;;;;0.52;0.52;;;;;;;;;;5041730;28;20033;-88
2022/05/24 02:18:59;;;;;;;0.20;0.20;;;;;;;;;;5025514;28;20486;-87
2022/05/24 02:21:25;;;;;;;0.10;0.10;;;;;;;;;;5023754;28;20033;-84
2022/05/24 02:23:52;;;;;;;1.35;0.80;;;;;;;;;;5022135;28;20037;-81
2022/05/24 02:26:19;;;;;;;5.60;0.73;;;;;;;;;;5028237;28;20032;-81
2022/05/24 02:28:46;;;;;;;0.20;0.20;;;;;;;;;;5024451;28;20123;-80
2022/05/24 02:31:14;;;;;;;0.10;0.10;;;;;;;;;;5028892;28;20044;-80
2022/05/24 02:33:40;;;;;;;0.15;0.15;;;;;;;;;;5022115;28;20029;-80
2022/05/24 02:36:07;;;;;;;0.10;0.10;;;;;;;;;;5024916;28;20034;-80
2022/05/24 02:38:33;;;;;;;0.20;0.20;;;;;;;;;;5025004;28;20119;-80
2022/05/24 02:43:45;;;;;;;0.30;0.22;;;;;;;;;;5016966;28;20049;-82
2022/05/24 02:46:11;;;;;;;0.10;0.10;;;;;;;;;;5016837;28;20182;-81
2022/05/24 02:48:37;;;;;;;0.10;0.10;;;;;;;;;;5016231;28;20040;-80
2022/05/24 02:51:09;;;;;;;0.17;0.17;;;;;;;;;;5020287;28;20283;-81
2022/05/24 02:53:35;;;;;;;0.30;0.30;;;;;;;;;;5020935;28;20111;-81
2022/05/24 02:56:02;;;;;;;1.52;1.15;;;;;;;;;;5017121;28;20707;-81
2022/05/24 02:58:28;;;;;;;;;;;;;;;;;;5016161;28;20113;-81
2022/05/24 03:00:54;;;;;;;0.15;0.13;;;;;;;;;;5020992;28;20784;-82
2022/05/24 03:03:20;;;;;;;0.17;0.17;;;;;;;;;;5019622;28;20036;-82
2022/05/24 03:05:46;;;;;;;0.10;0.10;;;;;;;;;;5027494;28;20048;-82
2022/05/24 03:10:57;;;;;;;0.40;0.40;;;;;;;;;;5017861;28;20055;-82
2022/05/24 03:16:09;;;;;;;0.45;0.43;;;;;;;;;;5023575;28;20061;-80
2022/05/24 03:18:35;;;;;;;0.10;0.10;;;;;;;;;;5018345;28;20123;-82
2022/05/24 03:21:01;;;;;;;0.47;0.47;;;;;;;;;;5034061;28;20107;-82
2022/05/24 03:23:27;;;;;;;0.10;0.10;;;;;;;;;;5016197;28;20047;-81
2022/05/24 03:25:53;;;;;;;0.40;0.40;;;;;;;;;;5013090;28;20090;-80
2022/05/24 03:28:20;;;;;;;0.10;0.10;;;;;;;;;;5016708;28;20143;-82
2022/05/24 03:30:46;;;;;;;0.17;0.17;;;;;;;;;;5024928;28;20138;-81
2022/05/24 03:33:12;;;;;;;0.20;0.20;;;;;;;;;;5025783;28;20140;-82
2022/05/24 03:35:39;;;;;;;0.20;0.20;;;;;;;;;;5022840;28;20033;-84
2022/05/24 03:38:05;;;;;;;0.00;0.00;;;;;;;;;;5023399;28;20021;-84
2022/05/24 03:40:31;;;;;;;14.93;0.63;;;;;;;;;;5023094;28;20988;-85
2022/05/24 03:42:57;;;;;;;0.10;0.10;;;;;;;;;;5030584;28;20033;-80
2022/05/24 03:45:23;;;;;;;0.20;0.20;;;;;;;;;;5024382;28;20363;-83
2022/05/24 03:47:49;;;;;;;0.13;0.13;;;;;;;;;;5020926;28;20316;-84
2022/05/24 03:50:16;;;;;;;0.43;0.40;;;;;;;;;;5021454;28;20488;-84
2022/05/24 03:52:42;;;;;;;0.10;0.08;;;;;;;;;;5021695;28;20033;-84
2022/05/24 03:55:08;;;;;;;0.93;0.93;;;;;;;;;;5033399;28;20047;-84
2022/05/24 04:00:21;;;;;;;0.25;0.25;;;;;;;;;;5022454;28;20061;-84
2022/05/24 04:02:47;;;;;;;0.38;0.38;;;;;;;;;;5022690;28;20033;-83
2022/05/24 04:05:14;;;;;;;0.25;0.25;;;;;;;;;;5022649;28;20421;-84
2022/05/24 04:07:41;;;;;;;0.52;0.50;;;;;;;;;;5024478;28;20060;-84
2022/05/24 04:10:09;;;;;;;0.50;0.40;;;;;;;;;;5021607;28;20045;-84
2022/05/24 04:12:35;;;;;;;0.38;0.38;;;;;;;;;;5021361;28;20700;-85
2022/05/24 04:15:01;;;;;;;0.10;0.10;;;;;;;;;;5023006;28;20043;-82
2022/05/24 04:17:27;;;;;;;0.22;0.22;;;;;;;;;;5021248;28;20036;-86
2022/05/24 04:19:53;;;;;;;0.10;0.10;;;;;;;;;;5022890;28;20497;-86
2022/05/24 04:22:19;;;;;;;0.10;0.10;;;;;;;;;;5015875;28;20033;-85
2022/05/24 04:24:46;;;;;;;0.10;0.10;;;;;;;;;;5038253;28;20117;-85
2022/05/24 04:27:12;;;;;;;;;;;;;;;;;;5023604;28;20033;-84
2022/05/24 04:29:39;;;;;;;0.10;0.10;;;;;;;;;;5025370;28;19923;-84
2022/05/24 04:32:06;;;;;;;0.10;0.10;;;;;;;;;;5023909;28;20099;-81
2022/05/24 04:34:32;;;;;;;0.28;0.28;;;;;;;;;;5023748;28;20033;-81
2022/05/24 04:36:58;;;;;;;0.10;0.10;;;;;;;;;;5024704;28;20033;-80
2022/05/24 04:39:24;;;;;;;0.30;0.30;;;;;;;;;;5023271;28;20052;-81
2022/05/24 04:44:35;;;;;;;0.52;0.22;;;;;;;;;;5022463;28;20044;-76
2022/05/24 04:47:07;;;;;;;0.10;0.10;;;;;;;;;;5023488;28;20041;-78
2022/05/24 04:49:33;;;;;;;0.10;0.10;;;;;;;;;;5036033;28;20147;-79
2022/05/24 04:52:00;;;;;;;0.10;0.10;;;;;;;;;;5031132;28;20026;-83
2022/05/24 04:54:26;;;;;;;0.20;0.20;;;;;;;;;;5024527;28;20454;-82
2022/05/24 04:56:52;;;;;;;0.20;0.20;;;;;;;;;;5036839;28;20021;-81
2022/05/24 04:59:18;;;;;;;0.20;0.20;;;;;;;;;;5034587;28;20518;-81
2022/05/24 05:01:44;;;;;;;0.10;0.10;;;;;;;;;;5046721;28;20029;-81
2022/05/24 05:04:10;;;;;;;0.10;0.10;;;;;;;;;;5031222;28;20115;-81
2022/05/24 05:06:37;;;;;;;0.10;0.10;;;;;;;;;;5035207;28;20418;-81
2022/05/24 05:09:03;;;;;;;0.10;0.10;;;;;;;;;;5031871;28;20057;-82
2022/05/24 05:11:29;;;;;;;0.13;0.13;;;;;;;;;;5041698;28;20111;-82
2022/05/24 05:13:55;;;;;;;0.10;0.10;;;;;;;;;;5034913;28;20037;-81
2022/05/24 05:16:21;;;;;;;0.17;0.17;;;;;;;;;;5035388;28;20322;-80
2022/05/24 05:18:47;;;;;;;2.90;0.93;;;;;;;;;;5036977;28;20056;-81
2022/05/24 05:21:13;;;;;;;0.20;0.20;;;;;;;;;;5035189;28;20346;-80
2022/05/24 05:23:39;;;;;;;0.00;0.00;;;;;;;;;;5038482;28;20791;-79
2022/05/24 05:26:05;;;;;;;0.37;0.37;;;;;;;;;;5039632;28;20113;-80
2022/05/24 05:28:31;;;;;;;0.00;0.00;;;;;;;;;;5035910;28;20291;-80
2022/05/24 05:33:42;;;;;;;0.00;0.00;;;;;;;;;;5037920;28;20158;-80
2022/05/24 05:36:08;;;;;;;;;;;;;;;;;;5037713;28;20126;-80
2022/05/24 05:38:35;;;;;;;0.00;0.00;;;;;;;;;;5041607;28;20402;-79
2022/05/24 05:41:01;;;;;;;2.05;0.70;;;;;;;;;;5035028;28;20040;-80
2022/05/24 05:43:27;;;;;;;0.10;0.10;;;;;;;;;;5027721;28;20029;-79
2022/05/24 05:45:54;;;;;;;0.00;0.00;;;;;;;;;;5036926;28;20405;-80
2022/05/24 05:48:20;;;;;;;1.77;0.90;;;;;;;;;;5036032;28;20044;-81
2022/05/24 05:50:47;;;;;;;0.20;0.20;;;;;;;;;;5042795;28;20021;-81
2022/05/24 05:53:13;;;;;;;0.00;0.00;;;;;;;;;;5034797;28;20053;-81
2022/05/24 05:55:41;;;;;;;0.00;0.00;;;;;;;;;;5033896;28;20029;-81
2022/05/24 05:58:07;;;;;;;0.08;0.08;;;;;;;;;;5040778;28;20029;-81
2022/05/24 06:00:33;;;;;;;0.10;0.10;;;;;;;;;;5033527;28;20033;-80
2022/05/24 06:03:00;;;;;;;0.00;0.00;;;;;;;;;;5043836;28;20033;-77
2022/05/24 06:05:26;;;;;;;0.00;0.00;;;;;;;;;;5033074;28;20119;-82
2022/05/24 06:07:52;;;;;;;0.00;0.00;;;;;;;;;;5028816;28;20021;-81
2022/05/24 06:10:18;;;;;;;0.00;0.00;;;;;;;;;;5027465;28;20041;-84
2022/05/24 06:12:44;;;;;;;0.00;0.00;;;;;;;;;;5037831;28;20118;-84
2022/05/24 06:15:10;;;;;;;0.00;0.00;;;;;;;;;;5042272;28;20528;-83
2022/05/24 06:17:46;;;;;;;0.00;0.00;;;;;;;;;;5031157;28;20131;-85
2022/05/24 06:20:12;;;;;;;;;;;;;;;;;;5034694;28;20041;-82
2022/05/24 06:22:38;;;;;;;0.10;0.10;;;;;;;;;;5031788;28;19986;-81
2022/05/24 06:25:05;;;;;;;0.10;0.10;;;;;;;;;;5024415;28;20398;-80
2022/05/24 06:27:31;;;;;;;0.00;0.00;;;;;;;;;;5035991;28;20025;-80
2022/05/24 06:29:57;;;;;;;0.00;0.00;;;;;;;;;;5037409;28;20489;-80
2022/05/24 06:32:23;;;;;;;0.00;0.00;;;;;;;;;;5034955;28;20034;-79
2022/05/24 06:34:51;;;;;;;0.00;0.00;;;;;;;;;;5040062;28;20036;-79
2022/05/24 06:37:18;;;;;;;0.52;0.30;;;;;;;;;;5038059;28;20037;-79
2022/05/24 06:39:44;;;;;;;;;;;;;;;;;;5032975;28;20041;-79
2022/05/24 06:42:10;;;;;;;0.00;0.00;;;;;;;;;;5035525;28;20393;-79
2022/05/24 06:44:36;;;;;;;0.38;0.10;;;;;;;;;;5041497;28;20025;-79
2022/05/24 06:47:02;;;;;;;0.00;0.00;;;;;;;;;;5027894;28;20510;-79
2022/05/24 06:49:28;;;;;;;0.82;0.30;;;;;;;;;;5030295;28;20027;-79
2022/05/24 06:51:55;;;;;;;0.30;0.17;;;;;;;;;;5029634;28;20037;-79
2022/05/24 06:54:21;;;;;;;0.00;0.00;;;;;;;;;;5029864;28;20120;-79
2022/05/24 06:56:47;;;;;;;0.00;0.00;;;;;;;;;;5041157;28;20116;-79
2022/05/24 07:04:42;;;;;;;0.10;0.10;;;;;;;;;;5029186;28;20040;-79
2022/05/24 07:07:08;;;;;;;0.88;0.40;;;;;;;;;;5029553;28;20018;-79
2022/05/24 07:09:35;;;;;;;0.13;0.13;;;;;;;;;;5029400;28;20135;-79
2022/05/24 07:12:01;;;;;;;0.00;0.00;;;;;;;;;;5029712;28;20017;-79
2022/05/24 07:14:28;;;;;;;0.20;0.20;;;;;;;;;;5024869;28;20116;-79
2022/05/24 07:16:54;;;;;;;0.00;0.00;;;;;;;;;;5040045;28;20067;-79
2022/05/24 07:19:21;;;;;;;0.00;0.00;;;;;;;;;;5030088;28;20046;-79
2022/05/24 07:21:47;;;;;;;0.00;0.00;;;;;;;;;;5027543;28;20021;-79
2022/05/24 07:24:13;;;;;;;0.00;0.00;;;;;;;;;;5032387;28;20102;-79
2022/05/24 07:26:39;;;;;;;0.00;0.00;;;;;;;;;;5041435;28;20509;-79
2022/05/24 07:29:05;;;;;;;0.05;0.05;;;;;;;;;;5025294;28;20064;-79
2022/05/24 07:31:32;;;;;;;0.00;0.00;;;;;;;;;;5029987;28;20152;-79
2022/05/24 07:34:01;;;;;;;0.00;0.00;;;;;;;;;;5029599;28;20029;-79
2022/05/24 07:36:27;;;;;;;0.55;0.28;;;;;;;;;;5029397;28;20461;-79
2022/05/24 07:38:53;;;;;;;0.00;0.00;;;;;;;;;;5028630;28;20048;-79
2022/05/24 07:46:49;;;;;;;0.00;0.00;;;;;;;;;;5028890;28;20048;-79
2022/05/24 07:49:15;;;;;;;0.00;0.00;;;;;;;;;;5029571;28;20021;-80
2022/05/24 07:51:41;;;;;;;0.10;0.10;;;;;;;;;;5029297;28;20100;-79
2022/05/24 07:54:08;;;;;;;5.57;1.23;;;;;;;;;;5029464;28;20049;-80
2022/05/24 07:56:34;;;;;;;0.00;0.00;;;;;;;;;;5025442;28;20045;-79
2022/05/24 07:59:00;;;;;;;0.00;0.00;;;;;;;;;;5027331;28;20029;-79
2022/05/24 08:01:27;;;;;;;0.20;0.20;;;;;;;;;;5029109;28;20026;-79
2022/05/24 08:03:53;;;;;;;0.30;0.10;;;;;;;;;;5028861;28;20034;-79
2022/05/24 08:06:19;;;;;;;0.10;0.10;;;;;;;;;;5028543;28;20496;-79
2022/05/24 08:08:46;;;;;;;0.03;0.00;;;;;;;;;;5027298;28;20036;-79
2022/05/24 08:11:12;;;;;;;1.58;0.10;;;;;;;;;;5025402;28;20057;-80
2022/05/24 08:13:38;;;;;;;0.00;0.00;;;;;;;;;;5026961;28;20060;-80
2022/05/24 08:16:04;;;;;;;0.00;0.00;;;;;;;;;;5043626;28;20485;-79
2022/05/24 08:18:31;;;;;;;0.65;0.28;;;;;;;;;;5028570;28;20907;-80
2022/05/24 08:20:58;;;;;;;0.52;0.40;;;;;;;;;;5028478;28;20154;-80
2022/05/24 08:23:25;;;;;;;0.00;0.00;;;;;;;;;;5024800;28;20104;-80
2022/05/24 08:25:51;;;;;;;0.00;0.00;;;;;;;;;;5027788;28;20059;-80
2022/05/24 08:28:17;;;;;;;0.93;0.15;;;;;;;;;;5028035;28;20054;-79
2022/05/24 08:30:44;;;;;;;0.22;0.20;;;;;;;;;;5042801;28;20764;-79
2022/05/24 08:33:12;;;;;;;0.00;0.00;;;;;;;;;;5028125;28;20048;-79
2022/05/24 08:35:38;;;;;;;0.05;0.05;;;;;;;;;;5025092;28;20112;-79
2022/05/24 08:38:05;;;;;;;0.00;0.00;;;;;;;;;;5026184;28;20180;-80
2022/05/24 08:40:33;;;;;;;0.20;0.20;;;;;;;;;;5037677;28;20029;-79
2022/05/24 08:43:02;;;;;;;0.00;0.00;;;;;;;;;;5032694;28;20029;-79
2022/05/24 08:48:26;;;;;;;0.00;0.00;;;;;;;;;;5028418;28;20167;-79
2022/05/24 08:51:00;;;;;;;0.00;0.00;;;;;;;;;;5027770;28;20040;-79
2022/05/24 08:53:34;;;;;;;0.00;0.00;;;;;;;;;;5024029;28;20032;-79
2022/05/24 08:56:02;;;;;;;0.00;0.00;;;;;;;;;;5039144;28;20497;-79
2022/05/24 08:58:31;;;;;;;0.00;0.00;;;;;;;;;;5028474;28;20034;-79
2022/05/24 09:00:57;;;;;;;0.00;0.00;;;;;;;;;;5043293;28;20034;-79
2022/05/24 09:03:25;;;;;;;0.03;0.00;;;;;;;;;;5026153;28;20490;-79
2022/05/24 09:06:08;;;;;;;0.10;0.10;;;;;;;;;;5039113;28;20056;-79
2022/05/24 09:08:49;;;;;;;0.00;0.00;;;;;;;;;;5025150;28;20029;-79
2022/05/24 09:11:21;;;;;;;0.00;0.00;;;;;;;;;;5025168;28;20558;-79
2022/05/24 09:13:54;;;;;;;0.00;0.00;;;;;;;;;;5038856;28;20440;-79
2022/05/24 09:16:20;;;;;;;0.00;0.00;;;;;;;;;;5036591;28;20036;-79
2022/05/24 09:18:46;;;;;;;0.00;0.00;;;;;;;;;;5033148;28;20037;-79
2022/05/24 09:21:22;;;;;;;0.10;0.10;;;;;;;;;;5028506;28;20091;-79
2022/05/24 09:23:51;;;;;;;0.00;0.00;;;;;;;;;;5027464;28;20022;-79
2022/05/24 09:26:22;;;;;;;0.00;0.00;;;;;;;;;;5025929;28;20514;-79
2022/05/24 09:28:48;;;;;;;7.72;0.13;;;;;;;;;;5028310;28;20076;-80
2022/05/24 09:31:37;;;;;;;0.10;0.10;;;;;;;;;;5028765;28;20040;-79
2022/05/24 09:34:13;;;;;;;3.20;0.52;;;;;;;;;;5031119;28;20494;-79
2022/05/24 09:36:41;;;;;;;1.45;0.55;;;;;;;;;;5030404;28;20088;-79
2022/05/24 09:39:21;;;;;;;0.00;0.00;;;;;;;;;;5027011;28;20043;-79
2022/05/24 09:41:58;;;;;;;0.00;0.00;;;;;;;;;;5026403;28;20801;-79
2022/05/24 09:44:25;;;;;;;0.00;0.00;;;;;;;;;;5038015;28;20025;-79
2022/05/24 09:46:51;;;;;;;0.25;0.25;;;;;;;;;;5030923;28;20065;-79
2022/05/24 09:49:28;;;;;;;0.25;0.10;;;;;;;;;;5031695;28;20534;-79
2022/05/24 09:51:58;;;;;;;0.52;0.30;;;;;;;;;;5032141;28;20040;-79
2022/05/24 09:54:26;;;;;;;0.10;0.10;;;;;;;;;;5039770;28;20032;-80
2022/05/24 09:57:07;;;;;;;0.00;0.00;;;;;;;;;;5044332;28;20128;-79
2022/05/24 09:59:34;;;;;;;0.00;0.00;;;;;;;;;;5027541;28;20049;-79
2022/05/24 10:02:02;;;;;;;0.00;0.00;;;;;;;;;;5029856;28;20124;-79
2022/05/24 10:04:29;;;;;;;0.00;0.00;;;;;;;;;;5032075;28;20394;-79
2022/05/24 10:06:57;;;;;;;0.00;0.00;;;;;;;;;;5031904;28;20029;-79
2022/05/24 10:09:26;;;;;;;0.00;0.00;;;;;;;;;;5031639;28;20068;-79
2022/05/24 10:11:57;;;;;;;0.00;0.00;;;;;;;;;;5026994;28;20014;-79
2022/05/24 10:14:39;;;;;;;0.00;0.00;;;;;;;;;;5026821;28;20044;-79
2022/05/24 10:17:05;;;;;;;0.17;0.17;;;;;;;;;;5041899;28;20103;-79
2022/05/24 10:19:54;;;;;;;0.00;0.00;;;;;;;;;;5040847;28;20045;-79
2022/05/24 10:22:20;;;;;;;0.10;0.10;;;;;;;;;;5031516;28;20037;-79
2022/05/24 10:24:46;;;;;;;0.22;0.17;;;;;;;;;;5030931;28;20406;-79
2022/05/24 10:27:15;;;;;;;0.00;0.00;;;;;;;;;;5044215;28;20029;-79
2022/05/24 10:30:01;;;;;;;0.00;0.00;;;;;;;;;;5059414;28;20053;-79
2022/05/24 10:38:19;;;;;;;1.05;0.03;;;;;;;;;;5041932;28;20128;-79
2022/05/24 10:40:45;;;;;;;0.70;0.63;;;;;;;;;;5029937;28;20578;-79
2022/05/24 10:43:20;;;;;;;0.00;0.00;;;;;;;;;;5050192;28;20060;-79
2022/05/24 10:46:00;;;;;;;0.08;0.08;;;;;;;;;;5035298;28;20121;-79
2022/05/24 10:48:33;;;;;;;0.00;0.00;;;;;;;;;;5030130;28;20516;-79
2022/05/24 10:51:13;;;;;;;1.95;0.85;;;;;;;;;;5030049;28;20051;-79
2022/05/24 10:53:51;;;;;;;0.00;0.00;;;;;;;;;;5025647;28;20040;-79
2022/05/24 10:56:20;;;;;;;0.00;0.00;;;;;;;;;;5025898;28;20040;-79
2022/05/24 10:58:47;;;;;;;0.00;0.00;;;;;;;;;;5029550;28;20037;-79
2022/05/24 11:01:13;;;;;;;0.00;0.00;;;;;;;;;;5029989;28;20036;-79
2022/05/24 11:03:45;;;;;;;0.00;0.00;;;;;;;;;;5030981;28;20017;-79
2022/05/24 11:06:29;;;;;;;0.00;0.00;;;;;;;;;;5030372;28;20459;-79
2022/05/24 11:08:58;;;;;;;0.00;0.00;;;;;;;;;;5029457;28;20096;-79
2022/05/24 11:11:27;;;;;;;0.00;0.00;;;;;;;;;;5026861;28;20044;-79
2022/05/24 11:13:59;;;;;;;0.00;0.00;;;;;;;;;;5029556;28;20058;-79
2022/05/24 11:16:41;;;;;;;0.47;0.30;;;;;;;;;;5038991;28;20128;-79
2022/05/24 11:19:09;;;;;;;0.00;0.00;;;;;;;;;;5032517;28;20037;-79
2022/05/24 11:21:38;;;;;;;0.00;0.00;;;;;;;;;;5029976;28;20025;-79
2022/05/24 11:24:07;;;;;;;0.00;0.00;;;;;;;;;;5029765;28;20031;-79
2022/05/24 11:26:35;;;;;;;0.00;0.00;;;;;;;;;;5040835;28;20410;-79
2022/05/24 11:29:30;;;;;;;0.00;0.00;;;;;;;;;;5037676;28;20529;-79
2022/05/24 11:32:01;;;;;;;0.00;0.00;;;;;;;;;;5020038;28;20603;-79
2022/05/24 11:34:30;;;;;;;0.00;0.00;;;;;;;;;;5029673;28;20037;-79
2022/05/24 11:37:02;;;;;;;0.00;0.00;;;;;;;;;;5044487;28;20119;-79
2022/05/24 11:39:34;;;;;;;0.00;0.00;;;;;;;;;;5029868;28;20048;-79
2022/05/24 11:42:20;;;;;;;0.00;0.00;;;;;;;;;;5029291;28;20096;-79
2022/05/24 11:44:47;;;;;;;0.10;0.00;;;;;;;;;;5038472;28;20068;-79
2022/05/24 11:47:49;;;;;;;0.00;0.00;;;;;;;;;;5027153;28;20025;-79
2022/05/24 11:50:33;;;;;;;0.00;0.00;;;;;;;;;;5019124;28;20041;-79
2022/05/24 11:53:01;;;;;;;0.00;0.00;;;;;;;;;;5021053;28;20042;-79
2022/05/24 11:55:41;;;;;;;0.00;0.00;;;;;;;;;;5021029;28;20041;-79
2022/05/24 11:58:27;;;;;;;0.00;0.00;;;;;;;;;;5019960;28;20448;-79
2022/05/24 12:00:56;;;;;;;0.00;0.00;;;;;;;;;;5013827;28;20037;-79
2022/05/24 12:08:54;;;;;;;;;;;;;;;;;;5008496;28;20525;-79
2022/05/24 12:11:40;;;;;;;0.00;0.00;;;;;;;;;;5019967;28;19913;-79
2022/05/24 12:14:25;;;;;;;0.00;0.00;;;;;;;;;;5015637;28;20045;-79
2022/05/24 12:16:54;;;;;;;0.00;0.00;;;;;;;;;;5006550;28;20100;-79
2022/05/24 12:19:38;;;;;;;0.00;0.00;;;;;;;;;;5009583;28;20061;-79
2022/05/24 12:22:06;;;;;;;0.10;0.00;;;;;;;;;;5018036;28;20032;-87
2022/05/24 12:24:42;;;;;;;0.10;0.10;;;;;;;;;;5051937;28;20073;-86
2022/05/24 12:27:14;;;;;;;0.00;0.00;;;;;;;;;;5042050;28;20028;-87
2022/05/24 12:29:44;;;;;;;0.00;0.00;;;;;;;;;;5025624;28;20056;-87
2022/05/24 12:32:10;;;;;;;0.00;0.00;;;;;;;;;;5022695;28;20068;-87
2022/05/24 12:34:36;;;;;;;0.00;0.00;;;;;;;;;;5035161;28;20414;-86
2022/05/24 12:37:10;;;;;;;0.00;0.00;;;;;;;;;;5032705;28;20121;-86
2022/05/24 12:39:36;;;;;;;0.00;0.00;;;;;;;;;;5043553;28;20581;-87
2022/05/24 12:42:06;;;;;;;0.00;0.00;;;;;;;;;;5060014;28;20025;-87
2022/05/24 12:44:38;;;;;;;0.20;0.20;;;;;;;;;;5035544;28;20033;-85
2022/05/24 12:47:07;;;;;;;0.00;0.00;;;;;;;;;;5042249;28;20021;-87
2022/05/24 12:49:35;;;;;;;0.10;0.10;;;;;;;;;;5038039;28;20029;-87
2022/05/24 12:52:03;;;;;;;0.00;0.00;;;;;;;;;;5031830;28;20021;-87
2022/05/24 12:54:34;;;;;;;0.00;0.00;;;;;;;;;;5028722;28;20053;-86
2022/05/24 12:57:13;;;;;;;0.00;0.00;;;;;;;;;;5041901;28;20100;-87
2022/05/24 12:59:40;;;;;;;0.35;0.30;;;;;;;;;;5025446;28;20041;-87
2022/05/24 13:02:13;;;;;;;0.00;0.00;;;;;;;;;;5025987;28;20671;-87
2022/05/24 13:04:39;;;;;;;0.03;0.03;;;;;;;;;;5027630;28;20164;-87
2022/05/24 13:07:35;;;;;;;0.00;0.00;;;;;;;;;;5027958;28;20033;-87
2022/05/24 13:10:03;;;;;;;2.10;0.20;;;;;;;;;;5027806;28;20150;-87
2022/05/24 13:12:29;;;;;;;0.00;0.00;;;;;;;;;;5029517;28;20706;-87
2022/05/24 13:14:58;;;;;;;0.00;0.00;;;;;;;;;;5039228;28;20776;-87
2022/05/24 13:17:26;;;;;;;0.00;0.00;;;;;;;;;;5024683;28;20041;-86
2022/05/24 13:19:53;;;;;;;0.00;0.00;;;;;;;;;;5031353;28;20029;-87
2022/05/24 13:22:21;;;;;;;0.00;0.00;;;;;;;;;;5035567;28;20033;-87
2022/05/24 13:24:50;;;;;;;0.08;0.08;;;;;;;;;;5037051;28;20025;-86
2022/05/24 13:27:16;;;;;;;0.00;0.00;;;;;;;;;;5029993;28;20043;-87
2022/05/24 13:35:16;;;;;;;0.00;0.00;;;;;;;;;;5043626;28;20048;-87
2022/05/24 13:37:47;;;;;;;0.00;0.00;;;;;;;;;;5046557;28;20026;-87
2022/05/24 13:40:13;;;;;;;0.00;0.00;;;;;;;;;;5038188;28;20041;-88
2022/05/24 13:42:51;;;;;;;0.00;0.00;;;;;;;;;;5039713;28;20493;-86
2022/05/24 13:45:22;;;;;;;0.10;0.10;;;;;;;;;;5041034;28;20060;-88
2022/05/24 13:47:52;;;;;;;0.20;0.20;;;;;;;;;;5027415;28;20042;-88
2022/05/24 13:50:21;;;;;;;0.00;0.00;;;;;;;;;;5043363;28;20051;-88
2022/05/24 13:52:50;;;;;;;0.00;0.00;;;;;;;;;;5041924;28;20029;-87
2022/05/24 13:55:21;;;;;;;0.00;0.00;;;;;;;;;;5034067;28;20478;-88
2022/05/24 13:58:14;;;;;;;0.10;0.10;;;;;;;;;;5036372;28;20036;-87
2022/05/24 14:00:40;;;;;;;0.00;0.00;;;;;;;;;;5039454;28;20045;-88
2022/05/24 14:03:24;;;;;;;0.00;0.00;;;;;;;;;;5042749;28;20044;-86
2022/05/24 14:06:02;;;;;;;0.00;0.00;;;;;;;;;;5025970;28;22428;-88
2022/05/24 14:08:28;;;;;;;0.00;0.00;;;;;;;;;;5023959;28;20037;-88
2022/05/24 14:10:54;;;;;;;0.00;0.00;;;;;;;;;;5026113;28;20612;-87
2022/05/24 14:13:20;;;;;;;0.00;0.00;;;;;;;;;;5042093;28;20539;-87
2022/05/24 14:15:46;;;;;;;0.00;0.00;;;;;;;;;;5017438;28;20128;-87
2022/05/24 14:18:14;;;;;;;0.00;0.00;;;;;;;;;;5039187;28;20124;-86
2022/05/24 14:20:40;;;;;;;0.08;0.08;;;;;;;;;;5039278;28;20573;-87
2022/05/24 14:23:06;;;;;;;0.00;0.00;;;;;;;;;;5042159;28;20083;-87
2022/05/24 14:25:32;;;;;;;0.00;0.00;;;;;;;;;;5041503;28;20036;-87
2022/05/24 14:28:00;;;;;;;0.00;0.00;;;;;;;;;;5020352;28;20131;-88
2022/05/24 14:30:27;;;;;;;0.10;0.10;;;;;;;;;;5025037;28;20140;-87
2022/05/24 14:32:59;;;;;;;0.10;0.10;;;;;;;;;;5024954;28;20025;-87
2022/05/24 14:35:25;;;;;;;0.00;0.00;;;;;;;;;;5023656;28;20037;-87
2022/05/24 14:37:51;;;;;;;0.00;0.00;;;;;;;;;;5031479;28;20069;-87
2022/05/24 14:40:17;;;;;;;0.00;0.00;;;;;;;;;;5034793;28;20059;-87
2022/05/24 14:42:46;;;;;;;0.00;0.00;;;;;;;;;;5034374;28;20022;-87
2022/05/24 14:45:12;;;;;;;0.45;0.22;;;;;;;;;;5043456;28;20103;-88
2022/05/24 14:47:38;;;;;;;0.20;0.20;;;;;;;;;;5027285;28;20032;-87
2022/05/24 14:50:04;;;;;;;0.00;0.00;;;;;;;;;;5027949;28;20033;-87
2022/05/24 14:52:34;;;;;;;0.00;0.00;;;;;;;;;;5030547;28;20029;-87
2022/05/24 14:55:00;;;;;;;0.15;0.15;;;;;;;;;;5044954;28;20048;-86
2022/05/24 14:57:26;;;;;;;0.00;0.00;;;;;;;;;;5030150;28;20131;-87
2022/05/24 14:59:53;;;;;;;0.13;0.00;;;;;;;;;;5040468;28;20404;-86
2022/05/24 15:02:19;;;;;;;0.00;0.00;;;;;;;;;;5026983;28;20027;-87
2022/05/24 15:04:46;;;;;;;0.03;0.03;;;;;;;;;;5037911;28;20124;-87
2022/05/24 15:15:45;;;;;;;0.00;0.00;;;;;;;;;;5001275;28;20072;-86
2022/05/24 15:18:11;;;;;;;0.00;0.00;;;;;;;;;;4981431;28;20084;-87
2022/05/24 15:20:39;;;;;;;0.05;0.05;;;;;;;;;;4980696;28;20049;-86
2022/05/24 15:23:17;;;;;;;0.03;0.03;;;;;;;;;;4999823;28;20037;-86
2022/05/24 15:25:56;;;;;;;0.00;0.00;;;;;;;;;;5000480;28;20446;-87
2022/05/24 15:28:25;;;;;;;0.00;0.00;;;;;;;;;;4999422;28;20049;-86
2022/05/24 15:30:52;;;;;;;0.00;0.00;;;;;;;;;;4967929;28;20034;-86
2022/05/24 15:33:18;;;;;;;0.00;0.00;;;;;;;;;;4987913;28;20045;-87
2022/05/24 15:35:44;;;;;;;0.00;0.00;;;;;;;;;;4995348;28;20084;-85
2022/05/24 15:38:10;;;;;;;0.00;0.00;;;;;;;;;;4993689;28;20072;-87
2022/05/24 15:40:37;;;;;;;0.00;0.00;;;;;;;;;;5009215;28;20049;-87
2022/05/24 15:43:04;;;;;;;0.00;0.00;;;;;;;;;;5038808;28;20029;-87
2022/05/24 15:45:31;;;;;;;8.02;1.45;;;;;;;;;;5036754;28;20700;-87
2022/05/24 15:47:57;;;;;;;0.45;0.45;;;;;;;;;;5037943;28;20459;-86
2022/05/24 15:50:23;;;;;;;0.22;0.22;;;;;;;;;;5038869;28;20033;-87
2022/05/24 15:52:50;;;;;;;0.00;0.00;;;;;;;;;;5040764;28;20033;-87
2022/05/24 15:55:16;;;;;;;0.22;0.20;;;;;;;;;;5028048;28;20032;-86